sensor_id;sensor_type;location;lat;lon;timestamp;P1;durP1;ratioP1;P2;durP2;ratioP2
21822;SDS011;11074;48.596;9.238;2023-02-15T00:01:48;19.45;;;12.52;;
21822;SDS011;11074;48.596;9.238;2023-02-15T00:04:16;24.05;;;12.70;;
21822;SDS011;11074;48.596;9.238;2023-02-15T00:06:45;21.95;;;12.60;;
21822;SDS011;11074;48.596;9.238;2023-02-15T00:09:11;22.15;;;13.18;;
21822;SDS011;11074;48.596;9.238;2023-02-15T00:11:37;22.30;;;13.05;;
21822;SDS011;11074;48.596;9.238;2023-02-15T00:16:48;24.65;;;13.32;;
21822;SDS011;11074;48.596;9.238;2023-02-15T00:19:17;20.83;;;12.40;;
21822;SDS011;11074;48.596;9.238;2023-02-15T00:21:45;23.35;;;12.85;;
21822;SDS011;11074;48.596;9.238;2023-02-15T00:24:13;21.30;;;13.23;;
21822;SDS011;11074;48.596;9.238;2023-02-15T00:26:41;22.98;;;13.25;;
21822;SDS011;11074;48.596;9.238;2023-02-15T00:29:09;23.20;;;13.43;;
21822;SDS011;11074;48.596;9.238;2023-02-15T00:31:36;21.42;;;12.95;;
21822;SDS011;11074;48.596;9.238;2023-02-15T00:34:07;23.08;;;12.65;;
21822;SDS011;11074;48.596;9.238;2023-02-15T00:36:43;24.02;;;13.55;;
21822;SDS011;11074;48.596;9.238;2023-02-15T00:39:10;24.67;;;12.80;;
21822;SDS011;11074;48.596;9.238;2023-02-15T00:41:37;21.05;;;12.93;;
21822;SDS011;11074;48.596;9.238;2023-02-15T00:44:03;21.02;;;12.75;;
21822;SDS011;11074;48.596;9.238;2023-02-15T00:46:29;21.30;;;13.20;;
21822;SDS011;11074;48.596;9.238;2023-02-15T00:48:55;22.85;;;12.90;;
21822;SDS011;11074;48.596;9.238;2023-02-15T00:51:21;21.05;;;13.02;;
21822;SDS011;11074;48.596;9.238;2023-02-15T00:53:47;22.70;;;13.30;;
21822;SDS011;11074;48.596;9.238;2023-02-15T00:56:13;25.05;;;13.38;;
21822;SDS011;11074;48.596;9.238;2023-02-15T00:58:39;23.80;;;13.48;;
21822;SDS011;11074;48.596;9.238;2023-02-15T01:01:10;20.92;;;12.48;;
21822;SDS011;11074;48.596;9.238;2023-02-15T01:03:38;21.70;;;13.40;;
21822;SDS011;11074;48.596;9.238;2023-02-15T01:06:06;22.27;;;13.05;;
21822;SDS011;11074;48.596;9.238;2023-02-15T01:08:32;22.33;;;13.65;;
21822;SDS011;11074;48.596;9.238;2023-02-15T01:11:12;23.05;;;13.32;;
21822;SDS011;11074;48.596;9.238;2023-02-15T01:13:46;22.95;;;12.85;;
21822;SDS011;11074;48.596;9.238;2023-02-15T01:16:18;21.65;;;13.00;;
21822;SDS011;11074;48.596;9.238;2023-02-15T01:18:44;21.13;;;13.60;;
21822;SDS011;11074;48.596;9.238;2023-02-15T01:21:11;27.38;;;14.18;;
21822;SDS011;11074;48.596;9.238;2023-02-15T01:23:41;25.33;;;14.30;;
21822;SDS011;11074;48.596;9.238;2023-02-15T01:26:08;21.90;;;13.60;;
21822;SDS011;11074;48.596;9.238;2023-02-15T01:28:34;20.77;;;12.48;;
21822;SDS011;11074;48.596;9.238;2023-02-15T01:31:04;22.15;;;12.48;;
21822;SDS011;11074;48.596;9.238;2023-02-15T01:33:35;21.45;;;12.55;;
21822;SDS011;11074;48.596;9.238;2023-02-15T01:36:01;22.98;;;13.18;;
21822;SDS011;11074;48.596;9.238;2023-02-15T01:38:29;22.05;;;13.05;;
21822;SDS011;11074;48.596;9.238;2023-02-15T01:40:54;22.88;;;13.07;;
21822;SDS011;11074;48.596;9.238;2023-02-15T01:43:45;23.45;;;12.50;;
21822;SDS011;11074;48.596;9.238;2023-02-15T01:46:16;22.10;;;13.25;;
21822;SDS011;11074;48.596;9.238;2023-02-15T01:48:48;22.50;;;13.68;;
21822;SDS011;11074;48.596;9.238;2023-02-15T01:51:23;21.10;;;12.98;;
21822;SDS011;11074;48.596;9.238;2023-02-15T01:53:58;21.60;;;12.50;;
21822;SDS011;11074;48.596;9.238;2023-02-15T01:56:33;22.27;;;13.55;;
21822;SDS011;11074;48.596;9.238;2023-02-15T01:59:13;20.15;;;12.55;;
21822;SDS011;11074;48.596;9.238;2023-02-15T02:01:45;21.77;;;12.38;;
21822;SDS011;11074;48.596;9.238;2023-02-15T02:04:31;26.20;;;14.02;;
21822;SDS011;11074;48.596;9.238;2023-02-15T02:07:39;23.33;;;13.40;;
21822;SDS011;11074;48.596;9.238;2023-02-15T02:10:11;21.25;;;12.43;;
21822;SDS011;11074;48.596;9.238;2023-02-15T02:12:42;22.55;;;13.60;;
21822;SDS011;11074;48.596;9.238;2023-02-15T02:15:11;23.10;;;13.35;;
21822;SDS011;11074;48.596;9.238;2023-02-15T02:17:56;23.83;;;13.43;;
21822;SDS011;11074;48.596;9.238;2023-02-15T02:21:21;24.20;;;12.95;;
21822;SDS011;11074;48.596;9.238;2023-02-15T02:27:39;25.00;;;13.68;;
21822;SDS011;11074;48.596;9.238;2023-02-15T02:47:02;26.35;;;14.23;;
21822;SDS011;11074;48.596;9.238;2023-02-15T02:49:41;25.88;;;13.95;;
21822;SDS011;11074;48.596;9.238;2023-02-15T03:01:10;27.38;;;14.25;;
21822;SDS011;11074;48.596;9.238;2023-02-15T03:03:50;29.85;;;14.52;;
21822;SDS011;11074;48.596;9.238;2023-02-15T03:06:25;25.73;;;15.35;;
21822;SDS011;11074;48.596;9.238;2023-02-15T03:09:02;27.35;;;13.93;;
21822;SDS011;11074;48.596;9.238;2023-02-15T03:11:46;21.95;;;13.48;;
21822;SDS011;11074;48.596;9.238;2023-02-15T03:14:14;22.77;;;14.15;;
21822;SDS011;11074;48.596;9.238;2023-02-15T03:16:43;21.17;;;12.75;;
21822;SDS011;11074;48.596;9.238;2023-02-15T03:19:19;22.02;;;12.77;;
21822;SDS011;11074;48.596;9.238;2023-02-15T03:21:55;25.45;;;13.63;;
21822;SDS011;11074;48.596;9.238;2023-02-15T03:24:44;22.83;;;13.25;;
21822;SDS011;11074;48.596;9.238;2023-02-15T03:27:22;22.40;;;13.07;;
21822;SDS011;11074;48.596;9.238;2023-02-15T03:29:53;22.05;;;12.63;;
21822;SDS011;11074;48.596;9.238;2023-02-15T03:32:23;21.38;;;12.90;;
21822;SDS011;11074;48.596;9.238;2023-02-15T03:34:55;22.05;;;12.73;;
21822;SDS011;11074;48.596;9.238;2023-02-15T03:37:30;18.58;;;11.88;;
21822;SDS011;11074;48.596;9.238;2023-02-15T03:43:36;24.60;;;13.43;;
21822;SDS011;11074;48.596;9.238;2023-02-15T03:46:30;24.90;;;13.73;;
21822;SDS011;11074;48.596;9.238;2023-02-15T03:49:44;27.23;;;13.95;;
21822;SDS011;11074;48.596;9.238;2023-02-15T03:52:28;28.45;;;14.35;;
21822;SDS011;11074;48.596;9.238;2023-02-15T03:54:58;26.92;;;14.43;;
21822;SDS011;11074;48.596;9.238;2023-02-15T03:57:25;25.85;;;14.98;;
21822;SDS011;11074;48.596;9.238;2023-02-15T04:05:41;24.40;;;13.52;;
21822;SDS011;11074;48.596;9.238;2023-02-15T04:08:09;24.52;;;14.13;;
21822;SDS011;11074;48.596;9.238;2023-02-15T04:10:35;24.20;;;14.02;;
21822;SDS011;11074;48.596;9.238;2023-02-15T04:13:28;26.70;;;13.75;;
21822;SDS011;11074;48.596;9.238;2023-02-15T04:15:56;28.33;;;14.02;;
21822;SDS011;11074;48.596;9.238;2023-02-15T04:18:32;23.80;;;12.82;;
21822;SDS011;11074;48.596;9.238;2023-02-15T04:21:26;22.63;;;12.93;;
21822;SDS011;11074;48.596;9.238;2023-02-15T04:24:13;21.17;;;12.68;;
21822;SDS011;11074;48.596;9.238;2023-02-15T04:26:58;21.90;;;12.80;;
21822;SDS011;11074;48.596;9.238;2023-02-15T04:29:25;22.83;;;12.82;;
21822;SDS011;11074;48.596;9.238;2023-02-15T04:31:52;22.17;;;12.95;;
21822;SDS011;11074;48.596;9.238;2023-02-15T04:34:20;24.75;;;13.18;;
21822;SDS011;11074;48.596;9.238;2023-02-15T04:36:46;22.05;;;12.88;;
21822;SDS011;11074;48.596;9.238;2023-02-15T04:39:12;23.73;;;13.07;;
21822;SDS011;11074;48.596;9.238;2023-02-15T04:41:39;25.05;;;13.05;;
21822;SDS011;11074;48.596;9.238;2023-02-15T04:44:05;22.10;;;12.40;;
21822;SDS011;11074;48.596;9.238;2023-02-15T04:46:31;21.83;;;12.48;;
21822;SDS011;11074;48.596;9.238;2023-02-15T04:48:57;23.58;;;13.20;;
21822;SDS011;11074;48.596;9.238;2023-02-15T04:51:24;22.25;;;13.32;;
21822;SDS011;11074;48.596;9.238;2023-02-15T04:53:50;23.38;;;13.85;;
21822;SDS011;11074;48.596;9.238;2023-02-15T04:56:17;21.67;;;13.38;;
21822;SDS011;11074;48.596;9.238;2023-02-15T04:58:44;24.13;;;13.57;;
21822;SDS011;11074;48.596;9.238;2023-02-15T05:01:10;23.48;;;13.38;;
21822;SDS011;11074;48.596;9.238;2023-02-15T05:03:36;23.33;;;13.65;;
21822;SDS011;11074;48.596;9.238;2023-02-15T05:06:02;21.60;;;13.07;;
21822;SDS011;11074;48.596;9.238;2023-02-15T05:08:29;22.67;;;13.20;;
21822;SDS011;11074;48.596;9.238;2023-02-15T05:10:55;20.92;;;12.05;;
21822;SDS011;11074;48.596;9.238;2023-02-15T05:13:22;20.90;;;12.27;;
21822;SDS011;11074;48.596;9.238;2023-02-15T05:15:50;21.05;;;12.98;;
21822;SDS011;11074;48.596;9.238;2023-02-15T05:18:20;24.48;;;13.13;;
21822;SDS011;11074;48.596;9.238;2023-02-15T05:20:47;22.80;;;13.02;;
21822;SDS011;11074;48.596;9.238;2023-02-15T05:23:13;21.55;;;11.70;;
21822;SDS011;11074;48.596;9.238;2023-02-15T05:25:39;21.33;;;12.48;;
21822;SDS011;11074;48.596;9.238;2023-02-15T05:28:24;27.52;;;14.98;;
21822;SDS011;11074;48.596;9.238;2023-02-15T05:31:11;23.00;;;13.93;;
21822;SDS011;11074;48.596;9.238;2023-02-15T05:33:44;23.00;;;14.00;;
21822;SDS011;11074;48.596;9.238;2023-02-15T05:36:10;23.02;;;13.73;;
21822;SDS011;11074;48.596;9.238;2023-02-15T05:38:36;26.42;;;13.25;;
21822;SDS011;11074;48.596;9.238;2023-02-15T05:41:07;25.65;;;14.20;;
21822;SDS011;11074;48.596;9.238;2023-02-15T05:43:34;22.05;;;13.38;;
21822;SDS011;11074;48.596;9.238;2023-02-15T05:46:00;23.38;;;13.18;;
21822;SDS011;11074;48.596;9.238;2023-02-15T05:48:27;22.13;;;12.43;;
21822;SDS011;11074;48.596;9.238;2023-02-15T05:51:01;22.45;;;12.52;;
21822;SDS011;11074;48.596;9.238;2023-02-15T05:53:31;19.50;;;11.60;;
21822;SDS011;11074;48.596;9.238;2023-02-15T05:56:00;18.77;;;11.13;;
21822;SDS011;11074;48.596;9.238;2023-02-15T05:58:31;17.98;;;11.30;;
21822;SDS011;11074;48.596;9.238;2023-02-15T06:01:21;22.45;;;12.93;;
21822;SDS011;11074;48.596;9.238;2023-02-15T06:03:47;26.63;;;13.75;;
21822;SDS011;11074;48.596;9.238;2023-02-15T06:06:14;24.20;;;13.30;;
21822;SDS011;11074;48.596;9.238;2023-02-15T06:08:40;22.70;;;14.00;;
21822;SDS011;11074;48.596;9.238;2023-02-15T06:11:06;18.70;;;11.75;;
21822;SDS011;11074;48.596;9.238;2023-02-15T06:13:32;23.38;;;12.95;;
21822;SDS011;11074;48.596;9.238;2023-02-15T06:15:59;23.55;;;13.30;;
21822;SDS011;11074;48.596;9.238;2023-02-15T06:18:25;20.33;;;12.23;;
21822;SDS011;11074;48.596;9.238;2023-02-15T06:20:51;22.65;;;12.20;;
21822;SDS011;11074;48.596;9.238;2023-02-15T06:23:17;19.35;;;11.15;;
21822;SDS011;11074;48.596;9.238;2023-02-15T06:25:44;20.85;;;11.70;;
21822;SDS011;11074;48.596;9.238;2023-02-15T06:28:11;22.25;;;11.50;;
21822;SDS011;11074;48.596;9.238;2023-02-15T06:30:36;19.77;;;12.02;;
21822;SDS011;11074;48.596;9.238;2023-02-15T06:33:02;21.48;;;12.00;;
21822;SDS011;11074;48.596;9.238;2023-02-15T06:35:28;19.63;;;11.75;;
21822;SDS011;11074;48.596;9.238;2023-02-15T06:37:53;21.00;;;11.75;;
21822;SDS011;11074;48.596;9.238;2023-02-15T06:40:19;18.85;;;11.48;;
21822;SDS011;11074;48.596;9.238;2023-02-15T06:42:45;19.10;;;10.98;;
21822;SDS011;11074;48.596;9.238;2023-02-15T06:45:11;22.85;;;12.48;;
21822;SDS011;11074;48.596;9.238;2023-02-15T06:47:37;20.83;;;12.60;;
21822;SDS011;11074;48.596;9.238;2023-02-15T06:50:03;19.75;;;12.23;;
21822;SDS011;11074;48.596;9.238;2023-02-15T06:52:31;23.45;;;13.68;;
21822;SDS011;11074;48.596;9.238;2023-02-15T06:54:56;23.02;;;13.48;;
21822;SDS011;11074;48.596;9.238;2023-02-15T06:57:22;26.48;;;13.80;;
21822;SDS011;11074;48.596;9.238;2023-02-15T06:59:48;21.98;;;11.73;;
21822;SDS011;11074;48.596;9.238;2023-02-15T07:02:13;24.20;;;13.02;;
21822;SDS011;11074;48.596;9.238;2023-02-15T07:04:40;26.60;;;13.05;;
21822;SDS011;11074;48.596;9.238;2023-02-15T07:07:09;28.00;;;14.45;;
21822;SDS011;11074;48.596;9.238;2023-02-15T07:09:37;29.13;;;15.23;;
21822;SDS011;11074;48.596;9.238;2023-02-15T07:12:04;28.13;;;15.25;;
21822;SDS011;11074;48.596;9.238;2023-02-15T07:14:50;26.13;;;13.88;;
21822;SDS011;11074;48.596;9.238;2023-02-15T07:17:16;27.08;;;14.13;;
21822;SDS011;11074;48.596;9.238;2023-02-15T07:19:42;30.85;;;14.50;;
21822;SDS011;11074;48.596;9.238;2023-02-15T07:22:08;26.63;;;14.32;;
21822;SDS011;11074;48.596;9.238;2023-02-15T07:24:34;29.92;;;14.90;;
21822;SDS011;11074;48.596;9.238;2023-02-15T07:26:59;20.50;;;12.88;;
21822;SDS011;11074;48.596;9.238;2023-02-15T07:29:25;24.40;;;13.63;;
21822;SDS011;11074;48.596;9.238;2023-02-15T07:31:51;23.83;;;13.63;;
21822;SDS011;11074;48.596;9.238;2023-02-15T07:34:16;25.20;;;13.95;;
21822;SDS011;11074;48.596;9.238;2023-02-15T07:36:42;27.25;;;15.70;;
21822;SDS011;11074;48.596;9.238;2023-02-15T07:39:11;28.25;;;15.55;;
21822;SDS011;11074;48.596;9.238;2023-02-15T07:41:37;29.70;;;14.13;;
21822;SDS011;11074;48.596;9.238;2023-02-15T07:44:03;25.77;;;14.15;;
21822;SDS011;11074;48.596;9.238;2023-02-15T07:46:29;27.48;;;13.40;;
21822;SDS011;11074;48.596;9.238;2023-02-15T07:48:55;26.08;;;13.60;;
21822;SDS011;11074;48.596;9.238;2023-02-15T07:51:21;23.83;;;13.15;;
21822;SDS011;11074;48.596;9.238;2023-02-15T07:53:46;23.67;;;13.23;;
21822;SDS011;11074;48.596;9.238;2023-02-15T07:56:13;23.17;;;13.82;;
21822;SDS011;11074;48.596;9.238;2023-02-15T07:58:40;24.25;;;13.77;;
21822;SDS011;11074;48.596;9.238;2023-02-15T08:01:24;23.83;;;14.02;;
21822;SDS011;11074;48.596;9.238;2023-02-15T08:03:55;23.65;;;13.05;;
21822;SDS011;11074;48.596;9.238;2023-02-15T08:06:23;21.83;;;13.55;;
21822;SDS011;11074;48.596;9.238;2023-02-15T08:08:52;21.75;;;12.65;;
21822;SDS011;11074;48.596;9.238;2023-02-15T08:11:20;23.73;;;13.30;;
21822;SDS011;11074;48.596;9.238;2023-02-15T08:13:55;24.00;;;13.18;;
21822;SDS011;11074;48.596;9.238;2023-02-15T08:16:58;22.50;;;13.23;;
21822;SDS011;11074;48.596;9.238;2023-02-15T08:19:28;22.05;;;13.52;;
21822;SDS011;11074;48.596;9.238;2023-02-15T08:21:58;19.85;;;12.48;;
21822;SDS011;11074;48.596;9.238;2023-02-15T08:24:31;21.23;;;13.23;;
21822;SDS011;11074;48.596;9.238;2023-02-15T08:27:01;22.90;;;13.38;;
21822;SDS011;11074;48.596;9.238;2023-02-15T08:29:30;23.42;;;14.20;;
21822;SDS011;11074;48.596;9.238;2023-02-15T08:31:58;21.45;;;14.00;;
21822;SDS011;11074;48.596;9.238;2023-02-15T08:34:28;26.63;;;14.32;;
21822;SDS011;11074;48.596;9.238;2023-02-15T08:36:56;24.75;;;14.57;;
21822;SDS011;11074;48.596;9.238;2023-02-15T08:39:22;22.35;;;13.13;;
21822;SDS011;11074;48.596;9.238;2023-02-15T08:41:48;24.52;;;13.80;;
21822;SDS011;11074;48.596;9.238;2023-02-15T08:44:14;22.30;;;13.80;;
21822;SDS011;11074;48.596;9.238;2023-02-15T08:46:43;21.80;;;13.45;;
21822;SDS011;11074;48.596;9.238;2023-02-15T08:49:12;22.95;;;13.43;;
21822;SDS011;11074;48.596;9.238;2023-02-15T08:51:44;23.17;;;13.88;;
21822;SDS011;11074;48.596;9.238;2023-02-15T08:54:15;24.63;;;13.57;;
21822;SDS011;11074;48.596;9.238;2023-02-15T08:56:44;22.52;;;13.65;;
21822;SDS011;11074;48.596;9.238;2023-02-15T08:59:12;22.95;;;13.40;;
21822;SDS011;11074;48.596;9.238;2023-02-15T09:01:41;22.92;;;13.88;;
21822;SDS011;11074;48.596;9.238;2023-02-15T09:04:08;21.73;;;13.52;;
21822;SDS011;11074;48.596;9.238;2023-02-15T09:06:35;23.92;;;14.43;;
21822;SDS011;11074;48.596;9.238;2023-02-15T09:09:03;23.52;;;14.30;;
21822;SDS011;11074;48.596;9.238;2023-02-15T09:11:30;20.52;;;12.85;;
21822;SDS011;11074;48.596;9.238;2023-02-15T09:14:04;23.90;;;14.55;;
21822;SDS011;11074;48.596;9.238;2023-02-15T09:19:00;23.38;;;12.98;;
21822;SDS011;11074;48.596;9.238;2023-02-15T09:21:29;21.25;;;13.60;;
21822;SDS011;11074;48.596;9.238;2023-02-15T09:24:00;21.73;;;13.88;;
21822;SDS011;11074;48.596;9.238;2023-02-15T09:26:30;21.88;;;13.48;;
21822;SDS011;11074;48.596;9.238;2023-02-15T09:29:00;22.92;;;13.73;;
21822;SDS011;11074;48.596;9.238;2023-02-15T09:31:29;20.95;;;13.25;;
21822;SDS011;11074;48.596;9.238;2023-02-15T09:34:03;22.45;;;13.57;;
21822;SDS011;11074;48.596;9.238;2023-02-15T09:36:30;23.80;;;13.18;;
21822;SDS011;11074;48.596;9.238;2023-02-15T09:39:13;21.65;;;13.25;;
21822;SDS011;11074;48.596;9.238;2023-02-15T09:51:05;28.08;;;15.20;;
21822;SDS011;11074;48.596;9.238;2023-02-15T09:54:03;24.90;;;15.63;;
21822;SDS011;11074;48.596;9.238;2023-02-15T09:57:00;23.95;;;14.60;;
21822;SDS011;11074;48.596;9.238;2023-02-15T09:59:55;26.15;;;14.65;;
21822;SDS011;11074;48.596;9.238;2023-02-15T10:03:11;25.83;;;14.90;;
21822;SDS011;11074;48.596;9.238;2023-02-15T10:06:01;23.67;;;15.10;;
21822;SDS011;11074;48.596;9.238;2023-02-15T10:13:22;22.27;;;14.13;;
21822;SDS011;11074;48.596;9.238;2023-02-15T10:16:02;22.63;;;13.85;;
21822;SDS011;11074;48.596;9.238;2023-02-15T10:19:04;27.50;;;14.32;;
21822;SDS011;11074;48.596;9.238;2023-02-15T10:22:18;24.33;;;14.93;;
21822;SDS011;11074;48.596;9.238;2023-02-15T10:27:55;28.85;;;14.32;;
21822;SDS011;11074;48.596;9.238;2023-02-15T10:30:40;24.60;;;14.32;;
21822;SDS011;11074;48.596;9.238;2023-02-15T10:33:35;21.30;;;14.00;;
21822;SDS011;11074;48.596;9.238;2023-02-15T10:39:07;22.95;;;14.13;;
21822;SDS011;11074;48.596;9.238;2023-02-15T10:47:15;22.58;;;13.95;;
21822;SDS011;11074;48.596;9.238;2023-02-15T10:56:36;20.75;;;12.65;;
21822;SDS011;11074;48.596;9.238;2023-02-15T11:08:28;16.90;;;11.00;;
21822;SDS011;11074;48.596;9.238;2023-02-15T11:11:00;19.33;;;11.93;;
21822;SDS011;11074;48.596;9.238;2023-02-15T11:13:34;21.05;;;12.65;;
21822;SDS011;11074;48.596;9.238;2023-02-15T11:18:50;19.45;;;11.73;;
21822;SDS011;11074;48.596;9.238;2023-02-15T11:21:27;19.42;;;11.90;;
21822;SDS011;11074;48.596;9.238;2023-02-15T11:24:13;20.77;;;11.00;;
21822;SDS011;11074;48.596;9.238;2023-02-15T11:26:57;17.50;;;11.55;;
21822;SDS011;11074;48.596;9.238;2023-02-15T11:29:50;18.02;;;10.95;;
21822;SDS011;11074;48.596;9.238;2023-02-15T11:32:30;19.33;;;11.38;;
21822;SDS011;11074;48.596;9.238;2023-02-15T11:40:35;16.45;;;10.95;;
21822;SDS011;11074;48.596;9.238;2023-02-15T11:46:02;18.40;;;10.85;;
21822;SDS011;11074;48.596;9.238;2023-02-15T11:48:30;21.92;;;11.55;;
21822;SDS011;11074;48.596;9.238;2023-02-15T11:50:57;19.10;;;12.27;;
21822;SDS011;11074;48.596;9.238;2023-02-15T11:53:25;16.88;;;10.98;;
21822;SDS011;11074;48.596;9.238;2023-02-15T11:55:58;19.35;;;10.68;;
21822;SDS011;11074;48.596;9.238;2023-02-15T11:58:28;15.82;;;11.18;;
21822;SDS011;11074;48.596;9.238;2023-02-15T12:04:07;19.25;;;11.30;;
21822;SDS011;11074;48.596;9.238;2023-02-15T12:06:53;17.23;;;11.75;;
21822;SDS011;11074;48.596;9.238;2023-02-15T12:09:59;18.13;;;11.82;;
21822;SDS011;11074;48.596;9.238;2023-02-15T12:12:42;16.98;;;11.82;;
21822;SDS011;11074;48.596;9.238;2023-02-15T12:15:08;19.73;;;12.25;;
21822;SDS011;11074;48.596;9.238;2023-02-15T12:17:52;19.02;;;12.52;;
21822;SDS011;11074;48.596;9.238;2023-02-15T12:23:02;17.92;;;12.25;;
21822;SDS011;11074;48.596;9.238;2023-02-15T12:25:40;19.63;;;12.20;;
21822;SDS011;11074;48.596;9.238;2023-02-15T12:28:29;16.60;;;10.88;;
21822;SDS011;11074;48.596;9.238;2023-02-15T12:33:35;17.15;;;11.18;;
21822;SDS011;11074;48.596;9.238;2023-02-15T12:36:29;17.60;;;11.23;;
21822;SDS011;11074;48.596;9.238;2023-02-15T12:41:40;14.95;;;10.02;;
21822;SDS011;11074;48.596;9.238;2023-02-15T12:49:30;14.52;;;9.50;;
21822;SDS011;11074;48.596;9.238;2023-02-15T12:52:03;15.10;;;9.23;;
21822;SDS011;11074;48.596;9.238;2023-02-15T12:54:47;13.85;;;9.55;;
21822;SDS011;11074;48.596;9.238;2023-02-15T12:57:21;15.57;;;9.52;;
21822;SDS011;11074;48.596;9.238;2023-02-15T13:00:00;13.77;;;9.18;;
21822;SDS011;11074;48.596;9.238;2023-02-15T13:02:53;14.20;;;10.13;;
21822;SDS011;11074;48.596;9.238;2023-02-15T13:07:59;16.42;;;10.27;;
21822;SDS011;11074;48.596;9.238;2023-02-15T13:10:42;15.52;;;9.85;;
21822;SDS011;11074;48.596;9.238;2023-02-15T13:13:35;15.10;;;9.82;;
21822;SDS011;11074;48.596;9.238;2023-02-15T13:16:17;14.13;;;9.73;;
21822;SDS011;11074;48.596;9.238;2023-02-15T13:18:55;14.57;;;9.13;;
21822;SDS011;11074;48.596;9.238;2023-02-15T13:21:28;14.18;;;9.43;;
21822;SDS011;11074;48.596;9.238;2023-02-15T13:26:50;16.65;;;10.57;;
21822;SDS011;11074;48.596;9.238;2023-02-15T13:29:23;14.70;;;10.13;;
21822;SDS011;11074;48.596;9.238;2023-02-15T13:31:53;16.08;;;10.82;;
21822;SDS011;11074;48.596;9.238;2023-02-15T13:34:23;17.02;;;11.48;;
21822;SDS011;11074;48.596;9.238;2023-02-15T13:37:15;18.60;;;11.02;;
21822;SDS011;11074;48.596;9.238;2023-02-15T13:43:05;18.15;;;11.75;;
21822;SDS011;11074;48.596;9.238;2023-02-15T13:49:05;20.00;;;11.52;;
21822;SDS011;11074;48.596;9.238;2023-02-15T14:25:17;18.85;;;10.02;;
21822;SDS011;11074;48.596;9.238;2023-02-15T14:30:36;11.90;;;8.50;;
21822;SDS011;11074;48.596;9.238;2023-02-15T14:35:58;11.73;;;7.88;;
21822;SDS011;11074;48.596;9.238;2023-02-15T14:41:04;8.75;;;6.68;;
21822;SDS011;11074;48.596;9.238;2023-02-15T14:43:45;11.30;;;8.02;;
21822;SDS011;11074;48.596;9.238;2023-02-15T14:46:35;12.57;;;8.15;;
21822;SDS011;11074;48.596;9.238;2023-02-15T14:49:21;15.25;;;8.05;;
21822;SDS011;11074;48.596;9.238;2023-02-15T14:52:04;14.38;;;7.47;;
21822;SDS011;11074;48.596;9.238;2023-02-15T14:59:46;11.00;;;7.55;;
21822;SDS011;11074;48.596;9.238;2023-02-15T15:02:50;12.48;;;6.18;;
21822;SDS011;11074;48.596;9.238;2023-02-15T15:05:24;9.90;;;6.45;;
21822;SDS011;11074;48.596;9.238;2023-02-15T15:07:59;8.80;;;7.30;;
21822;SDS011;11074;48.596;9.238;2023-02-15T15:10:32;13.52;;;7.50;;
21822;SDS011;11074;48.596;9.238;2023-02-15T15:13:38;10.30;;;6.95;;
21822;SDS011;11074;48.596;9.238;2023-02-15T15:15:56;10.18;;;6.70;;
21822;SDS011;11074;48.596;9.238;2023-02-15T15:19:00;9.55;;;6.45;;
21822;SDS011;11074;48.596;9.238;2023-02-15T15:35:27;11.30;;;6.72;;
21822;SDS011;11074;48.596;9.238;2023-02-15T15:41:41;10.18;;;6.90;;
21822;SDS011;11074;48.596;9.238;2023-02-15T15:49:38;13.63;;;7.57;;
21822;SDS011;11074;48.596;9.238;2023-02-15T15:52:15;12.52;;;6.63;;
21822;SDS011;11074;48.596;9.238;2023-02-15T15:54:46;9.90;;;7.18;;
21822;SDS011;11074;48.596;9.238;2023-02-15T15:57:26;12.27;;;6.68;;
21822;SDS011;11074;48.596;9.238;2023-02-15T16:00:04;11.25;;;6.53;;
21822;SDS011;11074;48.596;9.238;2023-02-15T16:02:51;15.73;;;8.02;;
21822;SDS011;11074;48.596;9.238;2023-02-15T16:05:18;24.15;;;14.38;;
21822;SDS011;11074;48.596;9.238;2023-02-15T16:07:45;14.98;;;8.75;;
21822;SDS011;11074;48.596;9.238;2023-02-15T16:10:31;11.50;;;7.57;;
21822;SDS011;11074;48.596;9.238;2023-02-15T16:12:58;11.60;;;6.88;;
21822;SDS011;11074;48.596;9.238;2023-02-15T16:15:36;12.73;;;8.00;;
21822;SDS011;11074;48.596;9.238;2023-02-15T16:18:14;10.95;;;7.07;;
21822;SDS011;11074;48.596;9.238;2023-02-15T16:20:48;14.43;;;7.68;;
21822;SDS011;11074;48.596;9.238;2023-02-15T16:26:44;14.65;;;8.10;;
21822;SDS011;11074;48.596;9.238;2023-02-15T16:29:33;14.63;;;7.95;;
21822;SDS011;11074;48.596;9.238;2023-02-15T16:32:03;11.15;;;6.32;;
21822;SDS011;11074;48.596;9.238;2023-02-15T16:34:49;19.30;;;13.13;;
21822;SDS011;11074;48.596;9.238;2023-02-15T16:37:24;17.33;;;10.82;;
21822;SDS011;11074;48.596;9.238;2023-02-15T16:40:01;15.85;;;9.93;;
21822;SDS011;11074;48.596;9.238;2023-02-15T16:42:28;17.60;;;11.32;;
21822;SDS011;11074;48.596;9.238;2023-02-15T16:47:35;19.65;;;11.07;;
21822;SDS011;11074;48.596;9.238;2023-02-15T16:50:16;16.63;;;11.35;;
21822;SDS011;11074;48.596;9.238;2023-02-15T16:52:46;19.70;;;11.55;;
21822;SDS011;11074;48.596;9.238;2023-02-15T16:55:20;22.42;;;13.50;;
21822;SDS011;11074;48.596;9.238;2023-02-15T16:57:59;23.98;;;14.98;;
21822;SDS011;11074;48.596;9.238;2023-02-15T17:00:30;28.02;;;16.55;;
21822;SDS011;11074;48.596;9.238;2023-02-15T17:03:03;24.40;;;14.70;;
21822;SDS011;11074;48.596;9.238;2023-02-15T17:08:27;24.50;;;12.77;;
21822;SDS011;11074;48.596;9.238;2023-02-15T17:19:24;21.58;;;12.77;;
21822;SDS011;11074;48.596;9.238;2023-02-15T17:22:19;23.55;;;12.50;;
21822;SDS011;11074;48.596;9.238;2023-02-15T17:25:00;23.55;;;12.95;;
21822;SDS011;11074;48.596;9.238;2023-02-15T17:27:29;39.95;;;24.98;;
21822;SDS011;11074;48.596;9.238;2023-02-15T17:30:00;29.67;;;19.83;;
21822;SDS011;11074;48.596;9.238;2023-02-15T17:32:43;30.33;;;16.42;;
21822;SDS011;11074;48.596;9.238;2023-02-15T17:35:30;28.48;;;17.00;;
21822;SDS011;11074;48.596;9.238;2023-02-15T17:38:20;29.20;;;17.60;;
21822;SDS011;11074;48.596;9.238;2023-02-15T17:40:45;24.13;;;15.00;;
21822;SDS011;11074;48.596;9.238;2023-02-15T17:43:12;27.48;;;16.30;;
21822;SDS011;11074;48.596;9.238;2023-02-15T17:45:40;25.95;;;16.90;;
21822;SDS011;11074;48.596;9.238;2023-02-15T17:48:27;23.77;;;16.88;;
21822;SDS011;11074;48.596;9.238;2023-02-15T17:51:00;23.80;;;15.52;;
21822;SDS011;11074;48.596;9.238;2023-02-15T17:53:29;22.30;;;13.50;;
21822;SDS011;11074;48.596;9.238;2023-02-15T17:55:56;22.52;;;13.63;;
21822;SDS011;11074;48.596;9.238;2023-02-15T17:58:22;22.45;;;13.02;;
21822;SDS011;11074;48.596;9.238;2023-02-15T18:00:52;21.73;;;12.75;;
21822;SDS011;11074;48.596;9.238;2023-02-15T18:03:47;20.58;;;12.73;;
21822;SDS011;11074;48.596;9.238;2023-02-15T18:06:34;20.38;;;13.88;;
21822;SDS011;11074;48.596;9.238;2023-02-15T18:09:23;20.70;;;13.27;;
21822;SDS011;11074;48.596;9.238;2023-02-15T18:12:21;21.65;;;13.13;;
21822;SDS011;11074;48.596;9.238;2023-02-15T18:14:53;21.80;;;13.23;;
21822;SDS011;11074;48.596;9.238;2023-02-15T18:17:22;21.95;;;12.50;;
21822;SDS011;11074;48.596;9.238;2023-02-15T18:19:57;21.52;;;12.32;;
21822;SDS011;11074;48.596;9.238;2023-02-15T18:22:26;18.73;;;11.35;;
21822;SDS011;11074;48.596;9.238;2023-02-15T18:24:55;22.35;;;12.15;;
21822;SDS011;11074;48.596;9.238;2023-02-15T18:27:21;19.40;;;11.85;;
21822;SDS011;11074;48.596;9.238;2023-02-15T18:29:46;24.85;;;13.07;;
21822;SDS011;11074;48.596;9.238;2023-02-15T18:32:21;21.35;;;11.65;;
21822;SDS011;11074;48.596;9.238;2023-02-15T18:34:56;19.43;;;11.60;;